In Rescue
 
Open Full Screen Window  High Contrast Mode
Wind Gusting 00 knots
11
November 29, 2022 8:54 AM CST
Present Weather: Light Snow
Weather Information
Wind Direction
  350 °
Wind Speed
  11 kt (13 mph)
Wind Gust
  00 kt (0 mph)
Altimeter
29.65 in
Visibility
3/4 SM
Temperature
-02° C
28° F
Dewpoint
-02° C
28° F
Humidity
100%
1hr Rain Fall
00.01 in.
24hr Rain Fall
00.04 in.
Sky Condition
Overcast @ 1,100 ft
Broken @ 700 ft
IFR

METAR KFBL 291454Z AUTO 35011KT 3/4SM -SN BKN007 OVC011 M02/M02 A2965 RMK AO2 P0001

FAA Disclaimer: The data displayed is for advisory purposes only and is not to be used for flight planning or operations.